Time;durP1;ratioP1;P1;durP2;ratioP2;P2;SDS_P1;SDS_P2;PMS_P1;PMS_P2;Temp;Humidity;BMP_temperature;BMP_pressure;BME280_temperature;BME280_humidity;BME280_pressure;Samples;Min_cycle;Max_cycle;Signal;HPM_P1;HPM_P2
2021/07/24 00:00:20;;;;;;;8.38;5.88;;;17.70;73.50;;;;;;2090396;28;20029;-88
2021/07/24 00:01:20;;;;;;;7.10;5.38;;;17.70;73.50;;;;;;2090496;28;20099;-88
2021/07/24 00:02:21;;;;;;;7.90;5.45;;;17.70;73.50;;;;;;2080496;28;20034;-88
2021/07/24 00:03:23;;;;;;;7.82;5.53;;;17.70;73.60;;;;;;2081567;28;20056;-88
2021/07/24 00:04:24;;;;;;;9.63;6.30;;;17.70;73.60;;;;;;2082295;28;20472;-88
2021/07/24 00:05:24;;;;;;;9.13;5.75;;;17.70;73.60;;;;;;2081867;28;20025;-88
2021/07/24 00:06:25;;;;;;;8.18;6.07;;;17.70;73.70;;;;;;2074517;28;20535;-88
2021/07/24 00:07:26;;;;;;;9.40;6.10;;;17.60;73.70;;;;;;2081504;28;20025;-88
2021/07/24 00:08:26;;;;;;;8.13;6.00;;;17.60;73.70;;;;;;2082006;28;20075;-88
2021/07/24 00:09:30;;;;;;;8.52;5.70;;;17.60;73.80;;;;;;2090321;28;20025;-88
2021/07/24 00:10:31;;;;;;;7.25;5.28;;;17.60;73.80;;;;;;2082011;28;20029;-88
2021/07/24 00:11:32;;;;;;;8.00;5.57;;;17.60;73.80;;;;;;2065748;28;20572;-88
2021/07/24 00:12:33;;;;;;;8.57;5.80;;;17.60;73.90;;;;;;2073575;28;20030;-88
2021/07/24 00:13:36;;;;;;;8.15;5.70;;;17.60;73.90;;;;;;2073609;28;20041;-88
2021/07/24 00:14:36;;;;;;;9.05;6.45;;;17.60;74.00;;;;;;2089951;28;20095;-88
2021/07/24 00:15:37;;;;;;;9.32;5.85;;;17.60;74.00;;;;;;2090253;28;20483;-89
2021/07/24 00:16:38;;;;;;;8.10;5.78;;;17.60;74.10;;;;;;2082502;28;20083;-88
2021/07/24 00:17:38;;;;;;;7.97;5.95;;;17.60;74.10;;;;;;2089077;28;20032;-89
2021/07/24 00:18:39;;;;;;;10.75;5.85;;;17.60;74.20;;;;;;2090387;28;20120;-88
2021/07/24 00:19:40;;;;;;;8.63;5.75;;;17.60;74.20;;;;;;2086053;28;20036;-88
2021/07/24 00:20:40;;;;;;;7.97;5.57;;;17.60;74.20;;;;;;2078671;28;20426;-88
2021/07/24 00:21:41;;;;;;;8.20;5.57;;;17.50;74.30;;;;;;2080885;28;20029;-88
2021/07/24 00:22:41;;;;;;;7.47;5.32;;;17.50;74.30;;;;;;2081340;28;20430;-88
2021/07/24 00:23:42;;;;;;;8.75;6.10;;;17.50;74.30;;;;;;2065643;28;20058;-88
2021/07/24 00:24:43;;;;;;;8.25;5.22;;;17.50;74.40;;;;;;2065718;28;20027;-88
2021/07/24 00:25:43;;;;;;;7.55;5.63;;;17.50;74.40;;;;;;2065593;28;20031;-88
2021/07/24 00:26:46;;;;;;;7.82;5.60;;;17.50;74.50;;;;;;2059466;28;20467;-88
2021/07/24 00:27:47;;;;;;;7.70;5.63;;;17.50;74.50;;;;;;2065868;28;20045;-88
2021/07/24 00:28:49;;;;;;;9.73;5.95;;;17.50;74.60;;;;;;2073682;28;20127;-88
2021/07/24 00:29:54;;;;;;;8.50;5.45;;;17.50;74.60;;;;;;2073823;28;20488;-89
2021/07/24 00:30:54;;;;;;;7.70;5.55;;;17.50;74.70;;;;;;2066340;28;20038;-88
2021/07/24 00:31:55;;;;;;;6.82;4.95;;;17.50;74.70;;;;;;2070619;28;20042;-88
2021/07/24 00:32:56;;;;;;;7.78;5.68;;;17.40;74.70;;;;;;2072105;28;20030;-88
2021/07/24 00:33:56;;;;;;;8.25;5.60;;;17.40;74.70;;;;;;2058901;28;20031;-88
2021/07/24 00:34:57;;;;;;;7.03;5.03;;;17.40;74.80;;;;;;2054582;28;20062;-88
2021/07/24 00:35:58;;;;;;;7.75;5.55;;;17.40;74.80;;;;;;2056887;28;20038;-88
2021/07/24 00:36:59;;;;;;;9.00;5.90;;;17.40;74.90;;;;;;2081777;28;20430;-88
2021/07/24 00:38:00;;;;;;;9.15;6.38;;;17.40;74.90;;;;;;2090749;28;20079;-88
2021/07/24 00:39:03;;;;;;;9.15;6.32;;;17.40;75.00;;;;;;2081780;28;20090;-88
2021/07/24 00:40:04;;;;;;;8.40;6.25;;;17.40;75.10;;;;;;2081360;28;20120;-88
2021/07/24 00:41:15;;;;;;;9.43;6.55;;;17.40;75.10;;;;;;2081841;28;20414;-88
2021/07/24 00:42:17;;;;;;;8.82;6.18;;;17.40;75.20;;;;;;2075442;28;20021;-88
2021/07/24 00:43:21;;;;;;;9.23;6.25;;;17.30;75.20;;;;;;2090285;28;20021;-88
2021/07/24 00:44:24;;;;;;;8.50;6.45;;;17.30;75.20;;;;;;2081538;28;20063;-89
2021/07/24 00:45:39;;;;;;;8.52;5.80;;;17.30;75.30;;;;;;2081322;28;20412;-88
2021/07/24 00:46:39;;;;;;;8.93;5.63;;;17.30;75.30;;;;;;2090725;28;20021;-88
2021/07/24 00:47:43;;;;;;;8.52;6.30;;;17.30;75.40;;;;;;2081491;28;20033;-88
2021/07/24 00:48:45;;;;;;;7.75;5.70;;;17.30;75.40;;;;;;2082001;28;20026;-88
2021/07/24 00:49:46;;;;;;;8.20;5.72;;;17.30;75.50;;;;;;2089972;28;20021;-88
2021/07/24 00:50:49;;;;;;;8.60;5.72;;;17.20;75.50;;;;;;2073623;28;20075;-88
2021/07/24 00:51:53;;;;;;;9.35;5.97;;;17.30;75.60;;;;;;2073608;28;20041;-88
2021/07/24 00:52:59;;;;;;;8.75;6.03;;;17.20;75.50;;;;;;2074368;28;20069;-89
2021/07/24 00:54:03;;;;;;;7.13;5.30;;;17.20;75.60;;;;;;2074265;28;20027;-88
2021/07/24 00:55:05;;;;;;;7.70;5.28;;;17.20;75.60;;;;;;2089188;28;20018;-88
2021/07/24 00:56:06;;;;;;;6.53;4.78;;;17.20;75.60;;;;;;2096732;28;20479;-88
2021/07/24 00:57:08;;;;;;;7.80;5.13;;;17.20;76.30;;;;;;2094841;28;20129;-88
2021/07/24 00:58:31;;;;;;;7.40;5.20;;;17.20;75.70;;;;;;2085280;28;20040;-88
2021/07/24 00:59:33;;;;;;;7.70;5.47;;;17.20;75.70;;;;;;2089950;28;20026;-89
2021/07/24 01:00:34;;;;;;;7.00;4.82;;;17.20;75.70;;;;;;2085262;28;20107;-88
2021/07/24 01:01:37;;;;;;;7.30;4.88;;;17.20;75.70;;;;;;2081946;28;20037;-89
2021/07/24 01:02:38;;;;;;;8.55;5.68;;;17.20;75.70;;;;;;2081346;28;20030;-88
2021/07/24 01:03:39;;;;;;;8.15;5.10;;;17.20;75.80;;;;;;2081912;28;20049;-88
2021/07/24 01:04:40;;;;;;;8.13;5.10;;;17.20;75.80;;;;;;2078799;28;20034;-88
2021/07/24 01:05:42;;;;;;;8.27;5.25;;;17.20;75.80;;;;;;2068189;28;20034;-88
2021/07/24 01:06:44;;;;;;;7.30;5.07;;;17.20;75.80;;;;;;2057392;28;20126;-89
2021/07/24 01:07:45;;;;;;;7.13;5.05;;;17.20;75.90;;;;;;2063046;28;20061;-88
2021/07/24 01:08:48;;;;;;;7.72;5.65;;;17.20;75.90;;;;;;2073232;28;20034;-88
2021/07/24 01:09:48;;;;;;;7.32;4.82;;;17.20;76.00;;;;;;2073515;28;20025;-88
2021/07/24 01:10:50;;;;;;;7.72;5.35;;;17.20;76.00;;;;;;2081974;28;20446;-88
2021/07/24 01:11:51;;;;;;;8.35;5.43;;;17.10;76.00;;;;;;2086793;28;20031;-88
2021/07/24 01:12:52;;;;;;;7.68;5.38;;;17.10;76.00;;;;;;2081565;28;20030;-88
2021/07/24 01:13:53;;;;;;;9.45;5.40;;;17.10;76.10;;;;;;2073279;28;20096;-88
2021/07/24 01:14:54;;;;;;;7.68;5.03;;;17.10;76.80;;;;;;2072328;28;20029;-88
2021/07/24 01:15:56;;;;;;;7.47;5.10;;;17.10;76.20;;;;;;2072364;28;20487;-88
2021/07/24 01:16:56;;;;;;;7.95;5.43;;;17.10;76.20;;;;;;2073304;28;20033;-88
2021/07/24 01:17:57;;;;;;;7.45;5.05;;;17.10;76.20;;;;;;2073396;28;20022;-88
2021/07/24 01:18:58;;;;;;;7.10;5.05;;;17.10;76.30;;;;;;2079400;28;20029;-88
2021/07/24 01:19:59;;;;;;;9.50;5.72;;;17.10;76.30;;;;;;2071405;28;20032;-87
2021/07/24 01:21:04;;;;;;;8.55;5.68;;;17.10;76.40;;;;;;2073392;28;20503;-87
2021/07/24 01:22:05;;;;;;;9.68;6.35;;;17.10;76.40;;;;;;2081950;28;20024;-88
2021/07/24 01:23:06;;;;;;;8.38;5.95;;;17.10;76.40;;;;;;2088605;28;20033;-88
2021/07/24 01:24:06;;;;;;;8.32;5.85;;;17.10;76.50;;;;;;2090336;28;20471;-88
2021/07/24 01:25:07;;;;;;;9.07;5.82;;;17.00;76.50;;;;;;2081381;28;20033;-88
2021/07/24 01:26:08;;;;;;;7.55;5.57;;;17.00;76.60;;;;;;2065058;28;20034;-88
2021/07/24 01:27:09;;;;;;;8.63;5.80;;;17.00;76.60;;;;;;2065121;28;20037;-88
2021/07/24 01:28:11;;;;;;;7.97;5.97;;;17.00;76.60;;;;;;2073238;28;20026;-88
2021/07/24 01:29:15;;;;;;;9.32;6.38;;;17.00;76.70;;;;;;2072986;28;20112;-88
2021/07/24 01:30:16;;;;;;;7.95;5.70;;;17.00;76.80;;;;;;2075232;28;20026;-88
2021/07/24 01:31:16;;;;;;;8.55;6.00;;;17.00;76.80;;;;;;2073961;28;20057;-89
2021/07/24 01:32:17;;;;;;;9.02;6.35;;;16.90;76.80;;;;;;2073193;28;20467;-89
2021/07/24 01:33:18;;;;;;;7.00;5.18;;;17.00;76.90;;;;;;2073310;28;20029;-89
2021/07/24 01:34:19;;;;;;;8.80;6.05;;;16.90;76.90;;;;;;2063932;28;20093;-88
2021/07/24 01:35:20;;;;;;;7.72;5.50;;;16.90;77.00;;;;;;2049142;28;20054;-88
2021/07/24 01:36:20;;;;;;;9.10;6.25;;;16.90;77.10;;;;;;2064762;28;20449;-88
2021/07/24 01:37:21;;;;;;;8.23;6.00;;;16.90;77.10;;;;;;2073512;28;20025;-89
2021/07/24 01:38:22;;;;;;;8.52;6.10;;;16.90;77.20;;;;;;2064987;28;20033;-88
2021/07/24 01:39:23;;;;;;;9.30;6.28;;;16.90;77.20;;;;;;2059635;28;20500;-89
2021/07/24 01:40:24;;;;;;;7.85;5.63;;;16.90;77.20;;;;;;2080876;28;20020;-88
2021/07/24 01:41:25;;;;;;;8.60;6.15;;;16.80;77.20;;;;;;2064993;28;20031;-89
2021/07/24 01:42:25;;;;;;;8.25;5.40;;;16.90;77.30;;;;;;2048896;28;20035;-88
2021/07/24 01:43:26;;;;;;;7.97;5.85;;;16.80;77.30;;;;;;2073302;28;20453;-88
2021/07/24 01:44:26;;;;;;;7.40;5.78;;;16.80;77.40;;;;;;2081253;28;20026;-88
2021/07/24 01:45:27;;;;;;;7.20;5.40;;;16.80;77.40;;;;;;2064463;28;20107;-88
2021/07/24 01:46:28;;;;;;;7.53;5.18;;;16.80;77.40;;;;;;2057251;28;20042;-88
2021/07/24 01:47:28;;;;;;;7.85;5.50;;;16.80;77.40;;;;;;2066945;28;20022;-88
2021/07/24 01:52:46;;;;;;;8.27;5.90;;;16.80;78.10;;;;;;2065302;28;20065;-88
2021/07/24 01:52:51;;;;;;;8.65;5.88;;;16.70;77.60;;;;;;2079979;28;20094;-88
2021/07/24 01:53:55;;;;;;;7.78;5.47;;;16.70;77.70;;;;;;2090147;28;20025;-88
2021/07/24 01:55:02;;;;;;;7.65;5.45;;;16.60;77.70;;;;;;2081376;28;20561;-87
2021/07/24 01:56:06;;;;;;;8.43;5.78;;;16.70;77.80;;;;;;2073840;28;20022;-88
2021/07/24 01:57:10;;;;;;;8.55;6.30;;;16.60;77.80;;;;;;2079884;28;20080;-88
2021/07/24 01:58:16;;;;;;;8.55;6.07;;;16.60;77.90;;;;;;2081235;28;20112;-88
2021/07/24 01:59:19;;;;;;;9.02;5.85;;;16.60;78.00;;;;;;2081573;28;20027;-88
2021/07/24 02:00:20;;;;;;;8.75;5.65;;;16.60;78.00;;;;;;2089090;28;20024;-89
2021/07/24 02:01:22;;;;;;;7.57;5.28;;;16.60;78.00;;;;;;2073115;28;20049;-88
2021/07/24 02:02:24;;;;;;;9.00;6.28;;;16.60;78.00;;;;;;2072814;28;20101;-88
2021/07/24 02:03:32;;;;;;;7.90;6.00;;;16.60;78.10;;;;;;2081047;28;20117;-88
2021/07/24 02:04:37;;;;;;;7.38;5.50;;;16.60;78.20;;;;;;2081096;28;20044;-88
2021/07/24 02:05:46;;;;;;;9.10;5.95;;;16.60;78.20;;;;;;2080631;28;20037;-88
2021/07/24 02:06:48;;;;;;;10.07;6.90;;;16.50;78.20;;;;;;2065930;28;20029;-88
2021/07/24 02:07:49;;;;;;;8.60;6.28;;;16.60;78.40;;;;;;2072804;28;20049;-87
2021/07/24 02:08:52;;;;;;;9.85;6.78;;;16.50;78.40;;;;;;2074126;28;20025;-87
2021/07/24 02:09:52;;;;;;;9.60;6.03;;;16.50;78.50;;;;;;2081094;28;20037;-88
2021/07/24 02:10:53;;;;;;;8.50;5.70;;;16.50;78.60;;;;;;2064847;28;20019;-88
2021/07/24 02:11:54;;;;;;;8.25;5.47;;;16.50;78.60;;;;;;2065140;28;20129;-88
2021/07/24 02:12:55;;;;;;;9.45;6.43;;;16.50;78.70;;;;;;2081150;28;20124;-88
2021/07/24 02:13:55;;;;;;;9.55;6.40;;;16.50;78.80;;;;;;2072793;28;20022;-87
2021/07/24 02:14:57;;;;;;;8.20;6.07;;;16.40;78.80;;;;;;2063986;28;20031;-88
2021/07/24 02:15:58;;;;;;;8.52;6.25;;;16.40;79.10;;;;;;2073052;28;20026;-88
2021/07/24 02:17:00;;;;;;;8.68;6.10;;;16.40;78.80;;;;;;2072599;28;20038;-88
2021/07/24 02:18:01;;;;;;;8.32;5.65;;;16.40;78.90;;;;;;2064998;28;20081;-88
2021/07/24 02:19:03;;;;;;;8.40;5.47;;;16.40;78.90;;;;;;2070634;28;20022;-88
2021/07/24 02:20:05;;;;;;;7.15;5.30;;;16.40;78.90;;;;;;2080743;28;20052;-88
2021/07/24 02:21:07;;;;;;;7.68;5.45;;;16.40;79.00;;;;;;2072821;28;20029;-88
2021/07/24 02:22:08;;;;;;;8.40;5.80;;;16.40;79.00;;;;;;2081229;28;20022;-88
2021/07/24 02:23:08;;;;;;;7.40;4.95;;;16.40;79.00;;;;;;2081142;28;20488;-87
2021/07/24 02:24:09;;;;;;;7.93;5.72;;;16.40;79.00;;;;;;2064466;28;20035;-88
2021/07/24 02:25:10;;;;;;;9.25;5.95;;;16.40;79.10;;;;;;2072941;28;20030;-88
2021/07/24 02:26:12;;;;;;;8.43;5.60;;;16.40;79.10;;;;;;2088920;28;20402;-88
2021/07/24 02:27:12;;;;;;;8.05;5.20;;;16.40;79.10;;;;;;2078380;28;20045;-87
2021/07/24 02:28:13;;;;;;;7.05;5.15;;;16.40;79.10;;;;;;2064996;28;20030;-88
2021/07/24 02:29:14;;;;;;;7.78;5.25;;;16.40;79.10;;;;;;2073013;28;20030;-88
2021/07/24 02:30:15;;;;;;;7.95;5.13;;;16.40;79.10;;;;;;2072830;28;20026;-88
2021/07/24 02:31:16;;;;;;;7.65;5.28;;;16.50;79.20;;;;;;2072088;28;20025;-88
2021/07/24 02:32:17;;;;;;;7.82;5.25;;;16.40;79.20;;;;;;2072746;28;20065;-88
2021/07/24 02:33:19;;;;;;;8.18;5.18;;;16.40;79.80;;;;;;2081102;28;20434;-88
2021/07/24 02:34:19;;;;;;;7.60;5.03;;;16.40;79.20;;;;;;2072370;28;20488;-88
2021/07/24 02:35:20;;;;;;;6.97;5.00;;;16.40;79.20;;;;;;2064546;28;20030;-88
2021/07/24 02:36:21;;;;;;;7.88;5.00;;;16.40;79.20;;;;;;2079974;28;20022;-88
2021/07/24 02:37:22;;;;;;;7.80;5.35;;;16.40;79.20;;;;;;2072898;28;20018;-87
2021/07/24 02:38:23;;;;;;;8.52;5.53;;;16.40;79.20;;;;;;2081170;28;20044;-88
2021/07/24 02:39:23;;;;;;;9.02;5.20;;;16.40;79.30;;;;;;2080852;28;20021;-88
2021/07/24 02:40:24;;;;;;;8.68;5.25;;;16.50;79.30;;;;;;2064547;28;20101;-88
2021/07/24 02:41:25;;;;;;;7.03;4.57;;;16.40;79.30;;;;;;2062388;28;20022;-88
2021/07/24 02:42:25;;;;;;;7.15;5.18;;;16.40;79.30;;;;;;2056280;28;20087;-88
2021/07/24 02:43:26;;;;;;;9.13;4.95;;;16.40;79.40;;;;;;2060409;28;20029;-87
2021/07/24 02:44:27;;;;;;;7.40;5.20;;;16.40;79.40;;;;;;2064630;28;20029;-88
2021/07/24 02:45:27;;;;;;;7.90;5.32;;;16.40;79.40;;;;;;2072628;28;20022;-88
2021/07/24 02:46:28;;;;;;;7.55;5.30;;;16.40;79.50;;;;;;2071491;28;20077;-88
2021/07/24 02:47:29;;;;;;;8.25;5.50;;;16.40;79.60;;;;;;2063681;28;20050;-88
2021/07/24 02:48:29;;;;;;;8.43;5.30;;;16.40;79.60;;;;;;2056704;28;20049;-88
2021/07/24 02:49:30;;;;;;;9.20;6.18;;;16.40;79.60;;;;;;2081109;28;20053;-87
2021/07/24 02:50:31;;;;;;;9.48;6.20;;;16.40;79.70;;;;;;2072804;28;20032;-88
2021/07/24 02:51:31;;;;;;;8.70;5.80;;;16.30;79.70;;;;;;2059046;28;20513;-88
2021/07/24 02:52:32;;;;;;;7.72;5.55;;;16.30;79.70;;;;;;2072853;28;20037;-88
2021/07/24 02:53:33;;;;;;;9.02;6.13;;;16.40;79.80;;;;;;2072584;28;20120;-88
2021/07/24 02:54:33;;;;;;;8.15;5.63;;;16.30;80.40;;;;;;2080855;28;20030;-88
2021/07/24 02:55:34;;;;;;;9.65;5.80;;;16.30;79.80;;;;;;2089880;28;20131;-88
2021/07/24 02:56:35;;;;;;;7.72;5.40;;;16.30;79.90;;;;;;2089404;28;20071;-88
2021/07/24 02:57:35;;;;;;;7.88;5.38;;;16.30;79.90;;;;;;2089408;28;20040;-88
2021/07/24 02:58:36;;;;;;;8.38;5.75;;;16.30;80.00;;;;;;2073526;28;20026;-88
2021/07/24 02:59:37;;;;;;;8.52;5.95;;;16.30;80.00;;;;;;2080801;28;20392;-88
2021/07/24 03:00:37;;;;;;;9.80;6.63;;;16.30;80.00;;;;;;2072872;28;20483;-88
2021/07/24 03:01:40;;;;;;;9.30;6.13;;;16.30;80.10;;;;;;2056740;28;20477;-88
2021/07/24 03:02:41;;;;;;;8.93;5.97;;;16.20;80.10;;;;;;2065371;28;20366;-88
2021/07/24 03:03:41;;;;;;;9.32;6.18;;;16.20;80.10;;;;;;2081413;28;20030;-88
2021/07/24 03:04:42;;;;;;;9.77;6.03;;;16.30;80.20;;;;;;2069465;28;20037;-88
2021/07/24 03:05:44;;;;;;;8.18;5.65;;;16.20;80.20;;;;;;2064767;28;20074;-88
2021/07/24 03:06:44;;;;;;;7.78;5.55;;;16.20;80.20;;;;;;2071978;28;20088;-88
2021/07/24 03:07:46;;;;;;;8.23;5.90;;;16.20;80.20;;;;;;2081304;28;20033;-88
2021/07/24 03:08:47;;;;;;;8.35;5.80;;;16.20;80.30;;;;;;2063786;28;20377;-88
2021/07/24 03:09:47;;;;;;;8.02;5.38;;;16.20;80.30;;;;;;2061932;28;20060;-89
2021/07/24 03:10:48;;;;;;;8.10;5.35;;;16.20;80.30;;;;;;2056688;28;20035;-88
2021/07/24 03:11:49;;;;;;;8.27;5.82;;;16.20;80.40;;;;;;2064636;28;20486;-88
2021/07/24 03:12:49;;;;;;;7.65;5.00;;;16.20;80.40;;;;;;2064643;28;20058;-88
2021/07/24 03:13:50;;;;;;;7.90;5.50;;;16.20;80.40;;;;;;2048778;28;20034;-89
2021/07/24 03:14:51;;;;;;;7.53;5.20;;;16.20;80.40;;;;;;2060997;28;20559;-88
2021/07/24 03:15:51;;;;;;;7.72;5.25;;;16.20;80.50;;;;;;2065743;28;20029;-88
2021/07/24 03:16:52;;;;;;;8.13;5.78;;;16.20;80.50;;;;;;2074278;28;20029;-88
2021/07/24 03:17:52;;;;;;;6.93;5.13;;;16.20;80.50;;;;;;2065305;28;20031;-88
2021/07/24 03:18:53;;;;;;;9.10;5.20;;;16.20;80.50;;;;;;2058659;28;20054;-88
2021/07/24 03:19:54;;;;;;;8.13;5.40;;;16.20;80.60;;;;;;2053715;28;20023;-87
2021/07/24 03:20:54;;;;;;;7.40;5.57;;;16.20;80.60;;;;;;2068630;28;20007;-84
2021/07/24 03:21:55;;;;;;;7.55;5.07;;;16.20;80.60;;;;;;2073873;28;20113;-87
2021/07/24 03:22:59;;;;;;;8.13;5.55;;;16.20;80.60;;;;;;2081312;28;20038;-88
2021/07/24 03:24:00;;;;;;;8.05;5.75;;;16.10;80.60;;;;;;2065975;28;20133;-88
2021/07/24 03:25:00;;;;;;;7.82;5.45;;;16.10;80.70;;;;;;2065713;28;20063;-88
2021/07/24 03:26:06;;;;;;;8.65;5.60;;;16.10;80.70;;;;;;2066050;28;20026;-88
2021/07/24 03:27:06;;;;;;;7.65;5.05;;;16.10;80.70;;;;;;2065997;28;20576;-88
2021/07/24 03:28:07;;;;;;;7.95;5.72;;;16.10;80.70;;;;;;2066166;28;20031;-88
2021/07/24 03:29:08;;;;;;;7.85;5.72;;;16.10;81.30;;;;;;2065655;28;20029;-88
2021/07/24 03:30:09;;;;;;;7.70;5.07;;;16.10;80.70;;;;;;2074136;28;20065;-88
2021/07/24 03:31:10;;;;;;;8.68;6.03;;;16.10;80.80;;;;;;2074029;28;20225;-88
2021/07/24 03:32:10;;;;;;;8.95;6.18;;;16.10;80.90;;;;;;2074024;28;20145;-87
2021/07/24 03:33:11;;;;;;;8.07;5.60;;;16.10;80.90;;;;;;2078395;28;20029;-88
2021/07/24 03:34:12;;;;;;;9.95;6.22;;;16.10;80.90;;;;;;2066462;28;20026;-88
2021/07/24 03:35:12;;;;;;;7.80;5.78;;;16.10;80.90;;;;;;2066957;28;20026;-88
2021/07/24 03:36:13;;;;;;;8.00;5.38;;;16.10;80.90;;;;;;2066271;28;20109;-88
2021/07/24 03:37:14;;;;;;;8.68;5.47;;;16.10;81.00;;;;;;2064204;28;20085;-88
2021/07/24 03:38:14;;;;;;;7.45;5.10;;;16.10;81.00;;;;;;2077189;28;20062;-88
2021/07/24 03:39:15;;;;;;;8.43;5.65;;;16.10;81.00;;;;;;2079719;28;20030;-88
2021/07/24 03:40:15;;;;;;;7.93;5.70;;;16.10;81.00;;;;;;2069144;28;20516;-88
2021/07/24 03:41:16;;;;;;;7.80;5.60;;;16.10;81.00;;;;;;2066141;28;20088;-88
2021/07/24 03:42:17;;;;;;;7.93;5.50;;;16.10;81.70;;;;;;2057744;28;20073;-88
2021/07/24 03:43:18;;;;;;;8.20;5.45;;;16.10;81.50;;;;;;2061770;28;20058;-88
2021/07/24 03:44:18;;;;;;;8.60;5.32;;;16.00;81.10;;;;;;2050068;29;20062;-88
2021/07/24 03:45:19;;;;;;;8.88;5.35;;;16.10;81.20;;;;;;2049653;28;20459;-88
2021/07/24 03:46:21;;;;;;;7.60;5.65;;;16.10;81.20;;;;;;2066011;28;20046;-88
2021/07/24 03:47:22;;;;;;;7.85;5.45;;;16.00;81.10;;;;;;2074669;28;20029;-88
2021/07/24 03:48:22;;;;;;;9.82;6.00;;;16.00;81.20;;;;;;2069657;28;20053;-88
2021/07/24 03:49:23;;;;;;;8.93;6.28;;;16.00;81.20;;;;;;2076647;28;20125;-88
2021/07/24 03:50:24;;;;;;;7.75;5.60;;;16.10;81.20;;;;;;2066938;28;20038;-88
2021/07/24 03:51:24;;;;;;;7.53;5.50;;;16.00;81.20;;;;;;2059403;28;20150;-88
2021/07/24 03:52:25;;;;;;;7.65;5.50;;;16.00;81.20;;;;;;2065753;28;20135;-87
2021/07/24 03:53:25;;;;;;;7.38;5.28;;;16.00;81.20;;;;;;2054792;28;20027;-88
2021/07/24 03:54:29;;;;;;;8.07;5.70;;;16.00;81.20;;;;;;2057968;28;20030;-88
2021/07/24 03:55:30;;;;;;;8.07;5.65;;;16.10;81.30;;;;;;2057576;28;20023;-88
2021/07/24 03:56:30;;;;;;;7.82;5.47;;;16.10;81.30;;;;;;2049746;29;20561;-87
2021/07/24 03:57:31;;;;;;;8.65;5.40;;;16.00;81.30;;;;;;2049735;28;20028;-88
2021/07/24 03:58:32;;;;;;;9.02;5.93;;;16.00;81.30;;;;;;2053188;28;20047;-88
2021/07/24 03:59:32;;;;;;;8.52;6.07;;;16.00;81.30;;;;;;2057868;28;20050;-88
2021/07/24 04:00:38;;;;;;;8.10;5.50;;;16.00;81.30;;;;;;2057773;28;20074;-88
2021/07/24 04:01:41;;;;;;;8.50;5.57;;;16.10;81.30;;;;;;2067883;28;20523;-88
2021/07/24 04:02:43;;;;;;;10.02;5.95;;;16.00;81.30;;;;;;2074203;28;20042;-88
2021/07/24 04:03:43;;;;;;;9.07;6.00;;;16.00;81.30;;;;;;2082423;28;20120;-87
2021/07/24 04:04:47;;;;;;;7.82;5.70;;;16.10;81.40;;;;;;2086876;28;20037;-88
2021/07/24 04:05:48;;;;;;;7.72;5.45;;;16.00;81.30;;;;;;2077563;28;20222;-88
2021/07/24 04:06:51;;;;;;;8.43;5.88;;;16.10;81.40;;;;;;2088963;28;20065;-88
2021/07/24 04:07:51;;;;;;;7.70;5.05;;;16.10;82.00;;;;;;2089141;28;20033;-88
2021/07/24 04:08:55;;;;;;;10.07;6.05;;;16.10;81.40;;;;;;2074794;28;20045;-88
2021/07/24 04:09:56;;;;;;;9.05;6.30;;;16.10;81.40;;;;;;2080073;28;20076;-88
2021/07/24 04:10:56;;;;;;;9.85;6.57;;;16.10;81.40;;;;;;2082127;28;20049;-88
2021/07/24 04:11:57;;;;;;;9.55;6.63;;;16.10;81.50;;;;;;2089903;28;20033;-88
2021/07/24 04:12:57;;;;;;;9.18;6.60;;;16.10;81.50;;;;;;2089885;28;20037;-87
2021/07/24 04:13:58;;;;;;;10.75;7.18;;;16.10;81.50;;;;;;2073884;28;20030;-88
2021/07/24 04:14:59;;;;;;;9.23;6.78;;;16.10;81.60;;;;;;2081343;28;20033;-88
2021/07/24 04:16:00;;;;;;;9.18;6.53;;;16.10;81.60;;;;;;2078701;28;20030;-88
2021/07/24 04:17:01;;;;;;;9.40;6.63;;;16.10;81.50;;;;;;2057725;28;20030;-88
2021/07/24 04:18:02;;;;;;;9.38;6.00;;;16.10;81.50;;;;;;2053954;28;20143;-87
2021/07/24 04:19:03;;;;;;;9.88;5.97;;;16.10;81.50;;;;;;2057654;28;20031;-88
2021/07/24 04:20:05;;;;;;;8.95;6.13;;;16.10;81.50;;;;;;2057704;28;20038;-87
2021/07/24 04:21:06;;;;;;;8.85;6.20;;;16.10;81.50;;;;;;2065746;28;20489;-88
2021/07/24 04:22:06;;;;;;;9.35;6.35;;;16.10;81.40;;;;;;2072024;28;20022;-88
2021/07/24 04:23:07;;;;;;;8.65;6.10;;;16.20;81.50;;;;;;2082092;28;20030;-88
2021/07/24 04:24:08;;;;;;;8.45;5.78;;;16.20;81.50;;;;;;2081992;28;20025;-88
2021/07/24 04:25:09;;;;;;;9.05;6.45;;;16.20;81.40;;;;;;2068512;28;20411;-88
2021/07/24 04:26:10;;;;;;;8.15;5.80;;;16.20;81.40;;;;;;2065998;28;20030;-87
2021/07/24 04:27:10;;;;;;;8.20;5.88;;;16.20;81.30;;;;;;2072367;28;20026;-88
2021/07/24 04:28:11;;;;;;;8.00;5.80;;;16.20;81.30;;;;;;2081922;28;20048;-89
2021/07/24 04:29:11;;;;;;;9.77;5.90;;;16.20;81.30;;;;;;2090107;28;20029;-88
2021/07/24 04:30:12;;;;;;;8.18;5.50;;;16.30;81.30;;;;;;2090085;28;20473;-88
2021/07/24 04:31:14;;;;;;;9.00;5.50;;;16.30;81.20;;;;;;2090541;28;20029;-88
2021/07/24 04:32:15;;;;;;;8.48;5.18;;;16.30;81.70;;;;;;2089638;28;20138;-88
2021/07/24 04:33:15;;;;;;;7.47;4.90;;;16.30;81.10;;;;;;2073811;28;20478;-88
2021/07/24 04:34:16;;;;;;;7.40;5.32;;;16.40;81.10;;;;;;2065722;28;20459;-88
2021/07/24 04:35:17;;;;;;;7.30;5.13;;;16.40;81.00;;;;;;2073232;28;20121;-88
2021/07/24 04:36:18;;;;;;;7.93;5.05;;;16.40;80.90;;;;;;2088188;28;20025;-88
2021/07/24 04:37:18;;;;;;;7.13;5.30;;;16.40;80.80;;;;;;2081737;28;20071;-88
2021/07/24 04:38:19;;;;;;;8.23;5.45;;;16.40;80.80;;;;;;2076228;28;20503;-88
2021/07/24 04:39:20;;;;;;;6.57;4.60;;;16.50;80.90;;;;;;2059571;28;20121;-88
2021/07/24 04:40:20;;;;;;;7.20;5.00;;;16.50;80.80;;;;;;2066264;28;20046;-88
2021/07/24 04:41:21;;;;;;;7.00;5.07;;;16.50;80.80;;;;;;2083853;28;20419;-88
2021/07/24 04:42:22;;;;;;;7.85;4.90;;;16.50;80.80;;;;;;2073785;28;20144;-88
2021/07/24 04:43:23;;;;;;;7.90;5.13;;;16.50;81.40;;;;;;2079358;28;20052;-88
2021/07/24 04:44:23;;;;;;;8.75;5.38;;;16.60;80.80;;;;;;2090173;28;20028;-88
2021/07/24 04:45:24;;;;;;;7.25;4.97;;;16.60;80.70;;;;;;2065384;28;20540;-88
2021/07/24 04:46:25;;;;;;;7.53;4.80;;;16.60;80.60;;;;;;2057415;28;20031;-88
2021/07/24 04:47:25;;;;;;;8.27;5.03;;;16.60;80.60;;;;;;2065547;28;20472;-88
2021/07/24 04:48:26;;;;;;;8.15;5.20;;;16.60;80.60;;;;;;2070727;28;20037;-88
2021/07/24 04:49:26;;;;;;;6.97;5.15;;;16.60;80.60;;;;;;2073434;28;20033;-88
2021/07/24 04:50:28;;;;;;;7.68;4.75;;;16.60;80.50;;;;;;2058018;28;20030;-89
2021/07/24 04:51:29;;;;;;;6.68;4.78;;;16.60;80.50;;;;;;2059045;28;20096;-88
2021/07/24 04:52:30;;;;;;;8.25;4.80;;;16.70;80.60;;;;;;2073645;28;20077;-88
2021/07/24 04:53:32;;;;;;;6.97;4.68;;;16.70;80.50;;;;;;2070756;28;20403;-88
2021/07/24 04:54:33;;;;;;;7.18;4.82;;;16.60;80.50;;;;;;2066132;28;20027;-88
2021/07/24 04:55:37;;;;;;;7.68;5.05;;;16.70;80.50;;;;;;2081784;28;20029;-88
2021/07/24 04:56:38;;;;;;;7.55;4.82;;;16.70;80.50;;;;;;2081884;28;20171;-88
2021/07/24 04:57:39;;;;;;;8.15;5.25;;;16.70;80.50;;;;;;2073698;28;20034;-88
2021/07/24 04:58:40;;;;;;;8.35;5.35;;;16.70;80.50;;;;;;2073114;28;20046;-88
2021/07/24 04:59:51;;;;;;;8.77;5.18;;;16.70;80.40;;;;;;2073402;28;20483;-88
2021/07/24 05:00:53;;;;;;;7.18;4.95;;;16.70;80.50;;;;;;2083175;28;20112;-88
2021/07/24 05:01:55;;;;;;;6.40;4.50;;;16.70;80.40;;;;;;2090091;28;20506;-88
2021/07/24 05:02:56;;;;;;;6.88;4.63;;;16.70;80.40;;;;;;2089862;28;20479;-88
2021/07/24 05:03:57;;;;;;;7.15;4.30;;;16.70;80.40;;;;;;2081393;28;20025;-88
2021/07/24 05:04:58;;;;;;;8.90;4.88;;;16.70;80.30;;;;;;2081489;28;20518;-87
2021/07/24 05:06:00;;;;;;;7.20;4.50;;;16.80;80.40;;;;;;2080581;28;20514;-88
2021/07/24 05:07:00;;;;;;;7.35;4.97;;;16.80;80.30;;;;;;2081612;28;20579;-88
2021/07/24 05:08:02;;;;;;;7.28;5.13;;;16.80;80.30;;;;;;2081585;28;20025;-88
2021/07/24 05:09:06;;;;;;;7.57;5.10;;;16.80;80.20;;;;;;2089364;28;20021;-88
2021/07/24 05:10:09;;;;;;;6.90;4.70;;;16.80;80.20;;;;;;2081551;28;20052;-88
2021/07/24 05:11:10;;;;;;;7.68;4.93;;;16.80;80.10;;;;;;2080855;28;20037;-88
2021/07/24 05:12:11;;;;;;;7.28;4.57;;;16.90;80.20;;;;;;2073137;28;20053;-88
2021/07/24 05:13:11;;;;;;;7.68;5.20;;;16.90;80.10;;;;;;2073316;28;20112;-88
2021/07/24 05:14:12;;;;;;;8.32;5.50;;;16.90;80.10;;;;;;2072869;28;20124;-88
2021/07/24 05:15:12;;;;;;;7.25;5.25;;;16.90;80.10;;;;;;2072791;28;20021;-88
2021/07/24 05:16:13;;;;;;;8.63;5.32;;;16.90;80.10;;;;;;2089753;28;20025;-88
2021/07/24 05:17:15;;;;;;;7.57;5.28;;;16.90;80.10;;;;;;2089637;28;20056;-89
2021/07/24 05:18:15;;;;;;;7.75;5.38;;;16.90;80.00;;;;;;2072987;28;20380;-88
2021/07/24 05:19:16;;;;;;;8.27;5.03;;;16.90;80.00;;;;;;2073209;28;20116;-88
2021/07/24 05:20:17;;;;;;;6.90;4.57;;;16.90;80.00;;;;;;2088495;28;20386;-89
2021/07/24 05:21:18;;;;;;;7.43;4.75;;;16.90;80.00;;;;;;2089654;28;20051;-88
2021/07/24 05:22:19;;;;;;;7.47;5.40;;;16.90;80.00;;;;;;2072636;28;20502;-89